»·PEaware :: N143CP KSNA-KBUR

N143CP :: KSNA-KBUR

FLIGHT INFORMATION

Flight Status: Arrived
Operator: Privately registered:
United States
More flights under this callsign
Pilot: Ryan C. (15122)
Aircraft: Diamond DA-62
(DA62)
More flights by this aircraft type
Origin: KSNA John Wayne-Orange Co
United States
Destination: KBUR Bob Hope-Burbank
United States
More flights between these airports :: More routes between these airports
Route: SLI SLI341 ELMOO V186 VNY
File this flight plan on PilotEdge
Remarks:
Altitude:
(Current/Filed)
6,000ft
Speed:
(Current/Filed)
160kts
Departed: 13-Dec-21 02:46 PM
Arrived: 13-Dec-21 03:13 PM
Distance/Time
Traveled:
40nm/0:27
Distance/Time
To Go:
Arrived

Flight Plot

Page will automatically refresh every two minutes.


Map Options




Map Legend


Flown Route
Filed Route
Departure Airport
Arrival Airport
Navaid (VOR, NDB)
Fix

Horizontal Profiles

Position Reports

Time Latitude Longitude Heading Altitude Ground
Speed
13-Dec-21 14:27 33.676911 -117.872068 119 60ft 0kts
13-Dec-21 14:28 33.676911 -117.872068 119 60ft 0kts
13-Dec-21 14:29 33.676911 -117.872068 119 60ft 0kts
13-Dec-21 14:30 33.676911 -117.872068 119 60ft 0kts
13-Dec-21 14:31 33.676911 -117.872068 119 60ft 0kts
13-Dec-21 14:32 33.676911 -117.872068 119 60ft 0kts
13-Dec-21 14:33 33.676911 -117.872068 119 60ft 0kts
13-Dec-21 14:34 33.676911 -117.872068 119 60ft 0kts
13-Dec-21 14:35 33.676911 -117.872068 119 60ft 0kts
13-Dec-21 14:37 33.676412 -117.870759 106 60ft 7kts
13-Dec-21 14:38 33.676342 -117.870552 116 60ft 0kts
13-Dec-21 14:39 33.676319 -117.869927 29 60ft 10kts
13-Dec-21 14:40 33.677609 -117.868728 337 60ft 0kts
13-Dec-21 14:41 33.677609 -117.868728 337 60ft 0kts
13-Dec-21 14:42 33.679926 -117.867807 25 60ft 10kts
13-Dec-21 14:43 33.681177 -117.866398 116 60ft 0kts
13-Dec-21 14:44 33.681177 -117.866398 116 60ft 0kts
13-Dec-21 14:45 33.680636 -117.865705 196 60ft 7kts
13-Dec-21 14:46 33.666727 -117.876350 230 339ft 98kts
13-Dec-21 14:47 33.649606 -117.904259 231 1522ft 103kts
13-Dec-21 14:48 33.629499 -117.936584 231 2001ft 141kts
13-Dec-21 14:49 33.607248 -117.973264 231 2986ft 128kts
13-Dec-21 14:50 33.590641 -118.010737 287 4001ft 135kts
13-Dec-21 14:51 33.625195 -118.026541 351 4994ft 138kts
13-Dec-21 14:52 33.664716 -118.033813 351 5938ft 144kts
13-Dec-21 14:53 33.710695 -118.042104 349 5995ft 176kts
13-Dec-21 14:54 33.761429 -118.049683 352 5955ft 182kts
13-Dec-21 14:55 33.811776 -118.056784 354 6001ft 174kts
13-Dec-21 14:56 33.860917 -118.061293 357 6029ft 171kts
13-Dec-21 14:57 33.910610 -118.065400 356 6041ft 172kts
13-Dec-21 14:58 33.959990 -118.069613 356 6041ft 175kts
13-Dec-21 14:58 34.001840 -118.073152 356 6043ft 175kts
13-Dec-21 15:00 34.060013 -118.078182 356 6043ft 172kts
13-Dec-21 15:01 34.102553 -118.099261 297 6066ft 168kts
13-Dec-21 15:02 34.120486 -118.153284 286 6049ft 168kts
13-Dec-21 15:02 34.134254 -118.198377 284 5981ft 172kts
13-Dec-21 15:03 34.149670 -118.253739 281 5708ft 182kts
13-Dec-21 15:04 34.162443 -118.310913 281 5042ft 164kts
13-Dec-21 15:06 34.176417 -118.373827 283 5058ft 161kts
13-Dec-21 15:06 34.201855 -118.402821 349 4989ft 168kts
13-Dec-21 15:07 34.247004 -118.418070 340 4073ft 165kts
13-Dec-21 15:08 34.283909 -118.411800 83 2950ft 132kts
13-Dec-21 15:09 34.258840 -118.376621 142 2118ft 143kts
13-Dec-21 15:10 34.226194 -118.364436 163 1191ft 83kts
13-Dec-21 15:11 34.204846 -118.358406 167 780ft 56kts
13-Dec-21 15:12 34.198924 -118.357842 305 780ft 0kts
13-Dec-21 15:13 34.198924 -118.357843 305 780ft 0kts
13-Dec-21 15:14 34.200298 -118.358664 337 780ft 3kts
13-Dec-21 15:15 34.200307 -118.358828 256 780ft 0kts
13-Dec-21 15:16 34.200307 -118.358828 256 780ft 0kts
13-Dec-21 15:17 34.200307 -118.358828 256 780ft 0kts
13-Dec-21 15:18 34.200307 -118.358828 256 780ft 0kts
13-Dec-21 15:19 34.200307 -118.358828 256 780ft 0kts
13-Dec-21 15:20 34.200307 -118.358828 256 780ft 0kts
13-Dec-21 15:21 34.200307 -118.358828 256 780ft 0kts
13-Dec-21 15:22 34.200307 -118.358828 256 780ft 0kts
13-Dec-21 15:23 34.200307 -118.358828 256 780ft 0kts
13-Dec-21 15:24 34.200307 -118.358828 256 780ft 0kts
13-Dec-21 15:25 34.200307 -118.358828 256 780ft 0kts
13-Dec-21 15:26 34.200307 -118.358828 256 780ft 0kts

Navigation Log

Ident Type
Flight plan parsing failed, navigation log unavailable